Abney, South Carolina
Current Conditions -  °F | °C
As of 5:55 PM on Wednesday 22 Oct 2014 (Local Time) from KCDN Reporting Station
Clear Clear  
Wind Chill: 64°   Ceiling: Unl
Heat Index: 64°   Visibility: 10mi
Dew Point: 41°   Wind: 8mph
Humidity: 42%   Direction: 340°NNW
Pressure: 30.02"   Gusts: NA
Location:  34.5438°N, 80.5351°W
Report Text: KCDN 222155Z AUTO 34007KT 10SM CLR 18/05 A3002 RMK AO2 TSNO
Loading
Personal Weather Stations






























Interactive Weather Map
Tropical Storm Tracking
New forecast layout! Learn more

10-Day Weather Forecast

Advertisements
Track Severe Weather on mobile